Time;durP1;ratioP1;P1;durP2;ratioP2;P2;SDS_P1;SDS_P2;PMS_P1;PMS_P2;Temp;Humidity;BMP_temperature;BMP_pressure;BME280_temperature;BME280_humidity;BME280_pressure;Samples;Min_cycle;Max_cycle;Signal;HPM_P1;HPM_P2
2021/04/19 00:00:33;;;;;;;61.07;30.03;;;;;;;3.04;78.07;99699.66;117856;1205;23323;-61
2021/04/19 00:03:00;;;;;;;59.83;28.00;;;;;;;3.02;78.18;99697.20;117978;1206;23699;-61
2021/04/19 00:05:28;;;;;;;58.20;27.90;;;;;;;2.99;77.54;99691.39;117918;1209;22833;-61
2021/04/19 00:07:56;;;;;;;67.05;32.55;;;;;;;2.94;77.93;99688.48;117881;1205;23020;-61
2021/04/19 00:10:26;;;;;;;69.65;31.85;;;;;;;2.92;77.77;99695.92;117863;1205;23280;-61
2021/04/19 00:12:53;;;;;;;64.60;31.13;;;;;;;2.89;77.50;99693.63;117892;1205;22994;-61
2021/04/19 00:15:21;;;;;;;65.00;32.00;;;;;;;2.86;77.60;99688.69;117944;1206;23540;-61
2021/04/19 00:17:49;;;;;;;72.15;34.60;;;;;;;2.86;77.72;99685.99;117924;1205;22878;-59
2021/04/19 00:20:20;;;;;;;64.60;31.40;;;;;;;2.89;77.82;99685.56;117961;1206;23044;-61
2021/04/19 00:22:47;;;;;;;73.00;31.10;;;;;;;2.90;78.61;99687.22;117850;1205;22983;-61
2021/04/19 00:25:16;;;;;;;64.53;29.93;;;;;;;2.92;77.91;99687.84;117922;1205;22844;-61
2021/04/19 00:27:43;;;;;;;62.25;29.90;;;;;;;2.90;78.04;99677.28;117891;1205;22883;-61
2021/04/19 00:30:12;;;;;;;46.03;21.97;;;;;;;2.88;77.61;99675.86;117864;1206;23066;-61
2021/04/19 00:32:40;;;;;;;54.05;27.55;;;;;;;2.88;77.77;99673.16;117945;1205;24685;-61
2021/04/19 00:37:22;;;;;;;57.77;27.07;;;;;;;2.88;77.71;99667.78;113297;1205;23129;-60
2021/04/19 00:39:50;;;;;;;67.70;31.85;;;;;;;2.85;78.35;99669.02;113335;1212;23253;-60
2021/04/19 00:42:18;;;;;;;61.95;30.50;;;;;;;2.83;78.65;99671.91;113353;1212;23265;-60
2021/04/19 00:44:45;;;;;;;61.75;30.85;;;;;;;2.81;78.16;99668.59;113191;1212;23143;-59
2021/04/19 00:47:13;;;;;;;68.60;33.05;;;;;;;2.79;78.24;99675.20;113264;1213;23150;-60
2021/04/19 00:49:41;;;;;;;72.00;35.40;;;;;;;2.75;77.60;99665.88;117050;1209;23656;-60
2021/04/19 00:52:08;;;;;;;53.30;26.60;;;;;;;2.71;78.12;99668.16;117247;1209;22819;-60
2021/04/19 00:54:36;;;;;;;60.55;29.00;;;;;;;2.69;77.65;99674.77;117235;1209;22809;-60
2021/04/19 00:57:04;;;;;;;62.05;30.60;;;;;;;2.67;78.09;99674.14;117234;1209;23764;-60
2021/04/19 00:59:31;;;;;;;65.45;28.55;;;;;;;2.65;78.23;99665.45;117203;1209;23001;-61
2021/04/19 01:01:59;;;;;;;66.00;30.95;;;;;;;2.65;77.86;99657.38;117236;1209;23665;-61
2021/04/19 01:04:28;;;;;;;66.30;30.15;;;;;;;2.61;77.31;99662.33;117180;1209;22902;-60
2021/04/19 01:06:57;;;;;;;62.87;28.27;;;;;;;2.60;77.46;99668.73;117231;1212;22893;-60
2021/04/19 01:09:24;;;;;;;56.20;28.35;;;;;;;2.60;77.72;99663.35;117188;1208;22837;-60
2021/04/19 01:11:54;;;;;;;64.40;28.65;;;;;;;2.62;78.26;99655.08;117221;1212;23764;-61
2021/04/19 01:14:21;;;;;;;72.10;32.60;;;;;;;2.64;78.07;99661.09;117196;1209;22922;-60
2021/04/19 01:16:49;;;;;;;63.45;30.35;;;;;;;2.67;78.13;99661.53;117252;1209;22857;-60
2021/04/19 01:19:17;;;;;;;62.40;27.80;;;;;;;2.73;78.58;99659.89;117211;1209;23653;-61
2021/04/19 01:21:44;;;;;;;57.15;29.80;;;;;;;2.75;78.40;99655.94;117239;1209;22851;-61
2021/04/19 01:24:13;;;;;;;56.25;27.75;;;;;;;2.78;77.57;99660.09;117219;1212;22855;-61
2021/04/19 01:26:41;;;;;;;51.87;27.07;;;;;;;2.75;77.48;99658.63;117203;1209;22891;-61
2021/04/19 01:29:08;;;;;;;55.00;28.80;;;;;;;2.75;77.53;99661.32;117219;1215;22797;-61
2021/04/19 01:31:36;;;;;;;54.30;27.55;;;;;;;2.74;77.77;99656.17;117172;1209;23861;-61
2021/04/19 01:34:07;;;;;;;51.30;26.97;;;;;;;2.74;78.08;99651.59;117199;1209;23321;-61
2021/04/19 01:36:35;;;;;;;55.70;28.05;;;;;;;2.74;77.90;99653.48;117212;1209;22966;-61
2021/04/19 01:39:06;;;;;;;65.80;28.00;;;;;;;2.76;77.90;99662.16;117223;1214;22984;-61
2021/04/19 01:41:34;;;;;;;52.50;27.60;;;;;;;2.75;77.78;99653.25;117201;1209;22858;-63
2021/04/19 01:44:02;;;;;;;51.93;27.13;;;;;;;2.74;78.43;99646.21;117243;1209;22867;-63
2021/04/19 01:46:30;;;;;;;58.75;29.15;;;;;;;2.73;78.07;99649.13;117180;1209;22894;-63
2021/04/19 01:48:58;;;;;;;57.10;28.35;;;;;;;2.70;78.06;99653.05;117236;1213;23018;-63
2021/04/19 01:51:29;;;;;;;60.50;27.67;;;;;;;2.69;77.81;99651.39;117193;1212;22885;-62
2021/04/19 01:53:56;;;;;;;71.60;34.20;;;;;;;2.67;78.14;99648.08;117224;1215;22976;-63
2021/04/19 01:56:24;;;;;;;71.40;32.70;;;;;;;2.67;78.46;99645.38;117192;1209;22979;-63
2021/04/19 01:58:52;;;;;;;77.60;37.40;;;;;;;2.70;79.13;99650.36;117247;1209;23730;-63
2021/04/19 02:01:19;;;;;;;83.20;38.80;;;;;;;2.71;78.87;99645.81;117203;1209;23307;-63
2021/04/19 02:04:05;;;;;;;73.30;35.80;;;;;;;2.71;78.60;99643.95;117240;1213;22862;-62
2021/04/19 02:06:54;;;;;;;71.25;34.05;;;;;;;2.67;77.87;99639.17;117184;1209;22920;-63
2021/04/19 02:09:37;;;;;;;72.90;35.30;;;;;;;2.66;77.95;99645.59;117208;1209;22941;-62
2021/04/19 02:12:14;;;;;;;80.65;38.10;;;;;;;2.63;77.96;99646.81;117214;1209;22832;-62
2021/04/19 02:15:06;;;;;;;79.73;33.83;;;;;;;2.60;78.09;99638.34;117226;1209;22874;-62
2021/04/19 02:17:55;;;;;;;74.00;32.55;;;;;;;2.56;77.77;99642.47;117227;1213;22823;-62
2021/04/19 02:20:35;;;;;;;67.75;31.90;;;;;;;2.48;77.89;99638.92;117199;1209;22895;-61
2021/04/19 02:23:06;;;;;;;72.90;35.60;;;;;;;2.46;78.51;99640.98;117198;1209;22871;-61
2021/04/19 02:25:38;;;;;;;56.80;27.75;;;;;;;2.45;78.37;99642.00;117225;1209;22860;-62
2021/04/19 02:28:08;;;;;;;62.50;30.10;;;;;;;2.43;78.56;99645.95;117222;1209;22807;-62
2021/04/19 02:30:39;;;;;;;74.40;31.67;;;;;;;2.42;77.89;99644.30;117196;1209;22875;-61
2021/04/19 02:33:13;;;;;;;63.10;29.30;;;;;;;2.40;77.90;99644.49;117167;1212;23949;-61
2021/04/19 02:35:43;;;;;;;62.50;28.40;;;;;;;2.37;77.64;99644.06;117213;1209;22844;-62
2021/04/19 02:38:16;;;;;;;58.80;29.65;;;;;;;2.35;77.90;99646.95;117201;1209;22858;-61
2021/04/19 02:40:45;;;;;;;65.80;28.70;;;;;;;2.33;78.29;99656.23;114531;1209;23587;-60
2021/04/19 02:43:12;;;;;;;63.10;29.10;;;;;;;2.31;77.85;99651.06;117178;1212;23752;-61
2021/04/19 02:45:41;;;;;;;66.53;30.37;;;;;;;2.28;78.05;99642.59;117257;1212;24330;-61
2021/04/19 02:48:23;;;;;;;62.20;29.90;;;;;;;2.28;78.19;99640.73;117060;1209;22832;-61
2021/04/19 02:51:12;;;;;;;59.83;29.03;;;;;;;2.29;78.49;99646.95;117251;1209;22897;-60
2021/04/19 02:53:47;;;;;;;55.40;28.00;;;;;;;2.26;78.00;99642.79;117178;1209;22904;-61
2021/04/19 02:56:14;;;;;;;58.15;27.55;;;;;;;2.24;77.86;99644.84;117255;1209;22909;-61
2021/04/19 02:58:50;;;;;;;53.90;26.40;;;;;;;2.23;78.22;99639.67;117201;1209;22990;-61
2021/04/19 03:01:23;;;;;;;40.25;23.30;;;;;;;2.20;78.31;99643.58;117188;1212;22906;-61
2021/04/19 03:03:55;;;;;;;48.30;24.50;;;;;;;2.19;78.16;99644.61;117215;1209;23854;-62
2021/04/19 03:06:24;;;;;;;46.80;23.90;;;;;;;2.20;78.76;99638.20;117276;1209;22816;-62
2021/04/19 03:08:56;;;;;;;55.10;26.25;;;;;;;2.21;79.11;99642.56;117213;1209;22817;-62
2021/04/19 03:11:35;;;;;;;49.15;26.40;;;;;;;2.27;79.56;99646.31;117231;1214;22858;-62
2021/04/19 03:14:04;;;;;;;63.53;31.80;;;;;;;2.34;80.14;99642.59;117213;1215;22916;-62
2021/04/19 03:16:47;;;;;;;61.85;32.15;;;;;;;2.43;80.71;99651.33;117199;1212;22878;-63
2021/04/19 03:19:18;;;;;;;64.00;31.50;;;;;;;2.51;80.88;99645.76;117204;1209;22974;-62
2021/04/19 03:21:48;;;;;;;61.25;30.75;;;;;;;2.58;81.88;99648.48;117225;1212;22860;-62
2021/04/19 03:24:20;;;;;;;52.80;28.17;;;;;;;2.56;81.32;99639.78;116974;1209;24158;-62
2021/04/19 03:27:03;;;;;;;57.90;27.05;;;;;;;2.70;80.79;99660.30;117208;1212;24181;-63
2021/04/19 03:29:33;;;;;;;46.20;27.40;;;;;;;2.74;80.58;99656.17;117187;1209;22862;-62
2021/04/19 03:32:11;;;;;;;46.25;24.80;;;;;;;2.79;80.26;99657.20;117182;1209;22937;-62
2021/04/19 03:34:42;;;;;;;49.60;24.40;;;;;;;2.87;80.14;99656.19;117146;1209;22888;-63
2021/04/19 03:37:17;;;;;;;47.50;24.70;;;;;;;2.92;80.19;99652.86;117073;1215;22933;-62
2021/04/19 03:40:07;;;;;;;48.80;24.70;;;;;;;2.98;80.27;99646.67;117194;1209;23733;-62
2021/04/19 03:42:36;;;;;;;70.33;32.43;;;;;;;3.03;80.17;99652.28;117189;1209;22882;-62
2021/04/19 03:45:08;;;;;;;68.43;36.40;;;;;;;3.11;80.52;99649.38;117182;1209;22895;-63
2021/04/19 03:48:13;;;;;;;86.10;41.40;;;;;;;3.24;80.99;99651.23;117276;1209;22882;-62
2021/04/19 03:50:49;;;;;;;68.33;36.73;;;;;;;3.36;80.81;99653.09;117174;1209;22846;-63
2021/04/19 03:53:17;;;;;;;66.30;35.30;;;;;;;3.47;80.79;99644.37;117220;1212;22848;-63
2021/04/19 03:55:45;;;;;;;67.70;35.65;;;;;;;3.61;81.05;99652.45;117205;1212;23680;-63
2021/04/19 03:58:13;;;;;;;59.53;34.67;;;;;;;3.77;81.52;99646.59;117173;1209;22869;-63
2021/04/19 04:00:46;;;;;;;62.60;34.15;;;;;;;3.92;81.71;99631.01;117080;1209;23789;-63
2021/04/19 04:03:23;;;;;;;52.80;29.60;;;;;;;4.11;81.54;99643.60;117253;1214;22828;-63
2021/04/19 04:06:12;;;;;;;42.67;26.30;;;;;;;4.32;81.62;99645.19;117148;1209;23411;-63
2021/04/19 04:08:41;;;;;;;37.03;23.97;;;;;;;4.51;81.38;99656.91;117211;1209;22869;-63
2021/04/19 04:11:10;;;;;;;45.85;27.05;;;;;;;4.67;81.21;99642.91;117173;1213;22991;-63
2021/04/19 04:13:38;;;;;;;47.90;30.90;;;;;;;4.84;81.12;99638.66;117234;1215;23704;-63
2021/04/19 04:16:06;;;;;;;50.43;33.47;;;;;;;5.02;81.19;99640.61;117135;1209;22997;-63
2021/04/19 04:18:58;;;;;;;57.80;33.45;;;;;;;5.21;80.57;99645.02;117243;1209;22844;-63
2021/04/19 04:21:26;;;;;;;50.10;30.90;;;;;;;5.39;80.90;99640.72;117198;1213;23263;-63
2021/04/19 04:23:57;;;;;;;49.00;28.85;;;;;;;5.53;80.35;99645.78;117061;1215;24052;-63
2021/04/19 04:26:26;;;;;;;42.65;25.60;;;;;;;5.69;79.89;99647.09;116907;1209;23095;-64
2021/04/19 04:28:54;;;;;;;38.40;23.70;;;;;;;5.84;80.06;99644.02;117207;1209;22821;-64
2021/04/19 04:31:26;;;;;;;34.90;20.95;;;;;;;5.96;78.89;99645.78;117172;1209;22928;-63
2021/04/19 04:33:59;;;;;;;38.27;22.60;;;;;;;6.08;79.38;99640.45;117210;1213;22897;-62
2021/04/19 04:36:27;;;;;;;37.63;21.50;;;;;;;6.20;78.15;99652.19;117255;1209;22853;-64
2021/04/19 04:38:58;;;;;;;36.40;22.10;;;;;;;6.28;78.22;99645.63;117197;1209;22873;-62
2021/04/19 04:41:52;;;;;;;41.73;23.00;;;;;;;6.37;78.03;99652.38;117238;1209;22979;-59
2021/04/19 04:44:32;;;;;;;35.35;20.80;;;;;;;6.46;78.01;99658.31;117220;1209;23702;-60
2021/04/19 04:47:16;;;;;;;40.53;22.27;;;;;;;6.57;76.93;99650.25;117209;1209;23457;-60
2021/04/19 04:49:51;;;;;;;35.50;22.15;;;;;;;6.69;76.93;99648.41;117203;1209;22848;-60
2021/04/19 04:52:18;;;;;;;42.07;22.27;;;;;;;6.77;76.78;99644.57;117207;1209;22794;-60
2021/04/19 04:54:48;;;;;;;35.20;23.00;;;;;;;6.87;76.71;99652.13;117068;1209;22886;-60
2021/04/19 04:57:20;;;;;;;38.95;24.20;;;;;;;6.95;76.73;99649.91;117226;1209;24035;-60
2021/04/19 04:59:51;;;;;;;33.85;21.60;;;;;;;6.99;76.43;99647.56;117105;1209;22813;-60
2021/04/19 05:02:23;;;;;;;30.65;18.65;;;;;;;7.09;76.05;99639.69;117262;1209;22809;-60
2021/04/19 05:04:51;;;;;;;33.57;19.60;;;;;;;7.20;75.53;99644.33;117161;1209;22978;-60
2021/04/19 05:07:19;;;;;;;36.65;18.35;;;;;;;7.31;75.34;99642.69;117235;1209;23289;-60
2021/04/19 05:09:49;;;;;;;37.30;20.80;;;;;;;7.39;75.89;99640.45;117205;1209;22813;-60
2021/04/19 05:12:17;;;;;;;38.30;18.63;;;;;;;7.46;75.26;99637.63;117198;1209;22873;-60
2021/04/19 05:14:58;;;;;;;19.50;11.45;;;;;;;7.52;74.51;99641.27;117205;1209;22912;-61
2021/04/19 05:17:26;;;;;;;9.70;7.30;;;;;;;7.58;74.27;99635.75;117217;1209;22832;-60
2021/04/19 05:19:54;;;;;;;9.65;5.95;;;;;;;7.64;74.09;99644.84;117208;1209;23568;-60
2021/04/19 05:22:22;;;;;;;10.10;6.05;;;;;;;7.68;73.06;99643.28;117212;1214;22886;-60
2021/04/19 05:24:51;;;;;;;10.10;6.60;;;;;;;7.73;72.73;99644.23;117222;1209;22877;-60
2021/04/19 05:27:18;;;;;;;11.75;6.90;;;;;;;7.78;73.06;99646.25;117217;1212;22878;-60
2021/04/19 05:29:46;;;;;;;8.80;6.03;;;;;;;7.84;72.88;99645.28;117154;1209;22942;-60
2021/04/19 05:32:15;;;;;;;15.90;6.80;;;;;;;7.91;72.49;99647.89;117186;1209;22883;-60
2021/04/19 05:34:42;;;;;;;6.65;5.10;;;;;;;7.98;73.13;99643.97;117176;1208;22889;-60
2021/04/19 05:37:10;;;;;;;7.57;5.53;;;;;;;8.04;72.26;99637.61;117228;1214;22989;-59
2021/04/19 05:39:37;;;;;;;6.90;5.60;;;;;;;8.12;71.05;99639.11;117161;1209;22883;-59
2021/04/19 05:42:05;;;;;;;8.83;5.93;;;;;;;8.12;71.26;99642.65;117238;1209;22808;-59
2021/04/19 05:44:32;;;;;;;11.50;5.00;;;;;;;8.15;70.85;99639.47;117092;1210;22862;-59
2021/04/19 05:47:02;;;;;;;7.10;5.60;;;;;;;8.17;70.69;99636.52;117188;1209;23012;-61
2021/04/19 05:49:29;;;;;;;7.35;5.40;;;;;;;8.20;70.08;99640.64;117241;1209;22849;-61
2021/04/19 05:51:58;;;;;;;7.20;5.33;;;;;;;8.22;69.85;99636.63;117217;1209;22860;-60
2021/04/19 05:54:26;;;;;;;5.15;4.20;;;;;;;8.24;68.90;99639.91;117242;1209;22848;-59
2021/04/19 05:57:00;;;;;;;7.05;4.25;;;;;;;8.24;68.37;99639.91;117152;1209;22896;-60
2021/04/19 05:59:56;;;;;;;7.45;3.90;;;;;;;8.24;67.91;99648.05;117229;1209;22906;-59
2021/04/19 06:02:44;;;;;;;3.50;2.80;;;;;;;8.27;68.98;99634.00;117177;1209;23646;-56
2021/04/19 06:05:22;;;;;;;5.60;3.25;;;;;;;8.36;68.54;99632.61;117192;1209;22902;-60
2021/04/19 06:08:34;;;;;;;6.30;3.90;;;;;;;8.41;67.78;99629.16;117093;1213;22850;-60
2021/04/19 06:11:22;;;;;;;3.93;3.00;;;;;;;8.45;67.50;99625.72;117156;1212;23767;-60
2021/04/19 06:14:18;;;;;;;3.50;3.10;;;;;;;8.53;67.06;99629.93;117101;1209;22862;-59
2021/04/19 06:16:45;;;;;;;4.90;3.70;;;;;;;8.58;67.30;99627.32;117190;1209;22841;-61
2021/04/19 06:19:15;;;;;;;4.60;3.80;;;;;;;8.63;67.26;99632.86;117164;1215;22971;-60
2021/04/19 06:21:43;;;;;;;5.45;4.15;;;;;;;8.70;67.26;99613.69;117200;1209;22963;-59
2021/04/19 06:24:11;;;;;;;5.40;4.25;;;;;;;8.76;66.95;99613.55;117241;1209;24202;-60
2021/04/19 06:26:38;;;;;;;8.00;4.37;;;;;;;8.80;67.11;99609.25;117159;1209;22944;-60
2021/04/19 06:29:08;;;;;;;5.95;4.30;;;;;;;8.90;67.54;99605.09;117185;1213;22873;-60
2021/04/19 06:31:37;;;;;;;9.37;4.63;;;;;;;9.02;66.61;99611.28;117224;1213;22932;-60
2021/04/19 06:34:11;;;;;;;8.10;5.10;;;;;;;9.13;66.72;99603.05;117204;1209;22911;-60
2021/04/19 06:36:41;;;;;;;7.70;4.80;;;;;;;9.25;66.90;99605.67;117249;1209;23479;-60
2021/04/19 06:39:14;;;;;;;9.00;5.20;;;;;;;9.38;66.76;99597.19;117252;1209;25519;-59
2021/04/19 06:41:42;;;;;;;6.40;4.70;;;;;;;9.52;65.99;99603.13;117180;1209;23458;-61
2021/04/19 06:44:10;;;;;;;8.63;5.17;;;;;;;9.64;65.54;99592.14;117224;1209;22931;-61
2021/04/19 06:46:38;;;;;;;7.10;4.95;;;;;;;9.72;65.44;99594.42;117265;1209;22868;-61
2021/04/19 06:49:07;;;;;;;6.90;4.50;;;;;;;9.81;65.43;99593.73;117159;1213;22905;-61
2021/04/19 06:51:34;;;;;;;7.28;4.70;;;;;;;9.95;65.17;99596.12;117248;1212;23989;-61
2021/04/19 06:54:03;;;;;;;8.10;4.53;;;;;;;10.07;64.55;99594.09;117234;1209;22815;-61
2021/04/19 06:56:35;;;;;;;8.37;4.77;;;;;;;10.16;63.79;99587.94;117214;1209;22852;-61
2021/04/19 06:59:02;;;;;;;8.40;5.50;;;;;;;10.19;63.31;99589.38;117208;1209;23035;-61
2021/04/19 07:01:30;;;;;;;7.97;5.77;;;;;;;10.19;63.58;99587.47;117274;1213;22870;-61
2021/04/19 07:04:06;;;;;;;7.90;5.40;;;;;;;10.24;63.43;99589.45;117196;1209;22835;-61
2021/04/19 07:06:34;;;;;;;11.17;6.00;;;;;;;10.17;63.44;99580.60;117249;1209;22880;-61
2021/04/19 07:09:27;;;;;;;8.60;5.30;;;;;;;10.27;63.47;99591.63;117199;1209;22983;-61
2021/04/19 07:12:09;;;;;;;8.30;5.75;;;;;;;10.30;63.23;99588.41;117247;1214;22931;-61
2021/04/19 07:14:37;;;;;;;8.57;6.10;;;;;;;10.36;63.16;99589.30;117175;1209;22904;-61
2021/04/19 07:17:05;;;;;;;8.00;4.97;;;;;;;10.41;62.67;99590.17;117227;1214;22892;-61
2021/04/19 07:19:33;;;;;;;7.53;5.77;;;;;;;10.41;61.56;99586.62;117204;1209;22941;-61
2021/04/19 07:22:01;;;;;;;6.83;5.45;;;;;;;10.39;62.61;99577.91;117231;1214;23004;-61
2021/04/19 07:24:28;;;;;;;7.20;5.70;;;;;;;10.34;61.80;99570.49;117228;1209;23759;-61
2021/04/19 07:26:57;;;;;;;9.58;6.30;;;;;;;10.46;62.04;99571.17;117207;1209;23786;-61
2021/04/19 07:29:25;;;;;;;8.08;5.95;;;;;;;10.52;61.12;99580.23;117240;1209;22857;-61
2021/04/19 07:31:53;;;;;;;8.73;5.77;;;;;;;10.50;62.59;99571.48;117297;1209;22830;-61
2021/04/19 07:34:26;;;;;;;10.60;5.80;;;;;;;10.59;61.91;99569.94;117198;1209;22845;-61
2021/04/19 07:36:54;;;;;;;11.00;5.77;;;;;;;10.64;61.72;99564.55;117242;1214;22871;-61
2021/04/19 07:39:22;;;;;;;10.18;6.60;;;;;;;10.71;61.35;99565.15;117197;1215;22832;-61
2021/04/19 07:41:56;;;;;;;6.43;4.23;;;;;;;10.77;60.94;99569.58;117249;1214;22823;-61
2021/04/19 07:44:45;;;;;;;6.90;5.37;;;;;;;10.82;60.32;99569.61;117166;1211;23712;-61
2021/04/19 07:47:19;;;;;;;5.83;4.53;;;;;;;10.82;60.23;99574.27;117255;1213;22842;-61
2021/04/19 07:50:07;;;;;;;8.40;5.50;;;;;;;10.80;59.88;99566.34;117261;1209;22848;-61
2021/04/19 07:52:37;;;;;;;9.50;6.03;;;;;;;10.75;59.67;99565.46;117244;1209;22988;-61
2021/04/19 07:55:10;;;;;;;8.93;6.07;;;;;;;10.71;59.79;99564.33;117155;1214;22969;-61
2021/04/19 07:57:57;;;;;;;5.83;4.58;;;;;;;10.72;59.83;99568.70;117234;1209;23493;-61
2021/04/19 08:00:45;;;;;;;9.48;5.58;;;;;;;10.74;59.80;99563.81;117184;1209;22900;-61
2021/04/19 08:03:16;;;;;;;6.57;5.50;;;;;;;10.79;59.51;99564.70;117225;1212;23739;-62
2021/04/19 08:05:49;;;;;;;8.33;5.55;;;;;;;10.78;59.20;99564.95;117232;1214;22892;-61
2021/04/19 08:08:17;;;;;;;8.90;5.50;;;;;;;10.74;59.73;99566.54;117161;1208;22840;-61
2021/04/19 08:10:46;;;;;;;8.63;4.57;;;;;;;10.75;60.30;99555.38;117189;1209;22846;-61
2021/04/19 08:13:15;;;;;;;6.33;4.70;;;;;;;10.78;59.66;99559.50;117206;1209;22875;-61
2021/04/19 08:15:43;;;;;;;6.03;4.87;;;;;;;10.84;59.52;99561.17;117190;1209;22893;-61
2021/04/19 08:18:13;;;;;;;7.37;5.47;;;;;;;10.86;59.44;99559.84;117237;1209;22945;-60
2021/04/19 08:20:56;;;;;;;6.53;4.87;;;;;;;10.89;59.26;99559.33;117241;1209;22823;-61
2021/04/19 08:23:23;;;;;;;6.38;4.95;;;;;;;10.92;59.29;99547.09;117240;1209;22929;-60
2021/04/19 08:25:51;;;;;;;5.95;4.85;;;;;;;10.96;59.23;99551.74;117193;1215;22929;-58
2021/04/19 08:28:20;;;;;;;5.83;4.80;;;;;;;11.01;58.63;99541.97;117191;1212;23882;-60
2021/04/19 08:30:52;;;;;;;5.90;4.25;;;;;;;11.09;57.81;99555.97;117190;1209;22837;-61
2021/04/19 08:33:19;;;;;;;7.53;5.53;;;;;;;11.12;58.48;99551.88;117214;1209;22908;-60
2021/04/19 08:35:48;;;;;;;6.80;5.25;;;;;;;11.11;58.40;99547.53;117183;1212;22878;-60
2021/04/19 08:38:20;;;;;;;6.98;5.68;;;;;;;11.13;59.33;99548.89;116884;1209;22939;-61
2021/04/19 08:40:49;;;;;;;6.47;4.30;;;;;;;11.14;57.27;99549.71;117257;1209;23681;-60
2021/04/19 08:43:23;;;;;;;6.35;4.30;;;;;;;11.03;56.99;99537.91;117240;1209;23726;-61
2021/04/19 08:45:51;;;;;;;11.05;5.43;;;;;;;11.14;57.69;99545.08;117256;1213;22894;-60
2021/04/19 08:48:19;;;;;;;8.13;5.43;;;;;;;11.15;58.73;99537.72;117202;1209;22955;-60
2021/04/19 08:50:48;;;;;;;6.73;5.23;;;;;;;11.17;57.93;99543.73;117282;1209;22958;-61
2021/04/19 08:53:16;;;;;;;6.75;4.70;;;;;;;11.19;57.87;99549.76;117186;1209;24066;-61
2021/04/19 08:55:44;;;;;;;9.90;5.15;;;;;;;11.21;57.61;99556.60;117214;1214;22850;-60
2021/04/19 08:58:12;;;;;;;5.70;4.58;;;;;;;11.24;57.83;99544.35;117226;1209;22880;-60
2021/04/19 09:00:45;;;;;;;6.47;4.60;;;;;;;11.29;57.20;99547.09;117227;1209;22843;-60
2021/04/19 09:03:15;;;;;;;6.83;5.95;;;;;;;11.36;56.84;99542.25;117218;1214;22843;-60
2021/04/19 09:05:43;;;;;;;10.05;4.50;;;;;;;11.44;55.95;99549.94;117282;1213;22793;-61
2021/04/19 09:08:15;;;;;;;6.18;3.13;;;;;;;11.45;52.72;99540.66;117212;1209;22842;-61
2021/04/19 09:10:56;;;;;;;4.95;3.45;;;;;;;11.44;52.28;99546.38;117221;1209;22880;-61
2021/04/19 09:13:27;;;;;;;6.47;3.93;;;;;;;11.47;53.96;99545.86;117217;1209;22899;-61
2021/04/19 09:15:55;;;;;;;6.15;3.95;;;;;;;11.54;54.61;99541.80;117248;1209;22933;-61
2021/04/19 09:18:23;;;;;;;8.05;3.90;;;;;;;11.63;53.85;99548.42;117210;1209;22955;-61
2021/04/19 09:20:54;;;;;;;6.73;5.58;;;;;;;11.66;54.49;99533.44;117273;1209;22813;-61
2021/04/19 09:23:27;;;;;;;6.03;4.60;;;;;;;11.66;55.18;99533.44;117214;1209;22850;-61
2021/04/19 09:25:55;;;;;;;9.68;4.93;;;;;;;11.66;55.18;99549.81;117206;1209;22938;-61
2021/04/19 09:28:41;;;;;;;8.38;5.40;;;;;;;11.61;56.17;99545.13;117177;1209;22904;-61
2021/04/19 09:31:10;;;;;;;7.58;4.75;;;;;;;11.54;56.29;99539.07;117244;1209;23820;-61
2021/04/19 09:33:37;;;;;;;7.85;3.63;;;;;;;11.50;54.79;99540.70;117208;1209;22988;-61
2021/04/19 09:36:06;;;;;;;5.77;3.73;;;;;;;11.46;55.40;99544.22;117244;1209;22878;-61
2021/04/19 09:38:34;;;;;;;6.20;5.00;;;;;;;11.48;56.77;99555.69;117210;1209;22959;-61
2021/04/19 09:41:05;;;;;;;6.45;4.73;;;;;;;11.48;56.94;99551.06;117227;1209;22856;-61
2021/04/19 09:43:47;;;;;;;6.08;5.10;;;;;;;11.46;56.60;99547.77;117244;1209;23434;-61
2021/04/19 09:46:20;;;;;;;7.93;5.00;;;;;;;11.41;56.80;99544.99;117265;1209;22794;-60
2021/04/19 09:48:56;;;;;;;6.20;4.63;;;;;;;11.36;57.19;99546.88;117268;1209;23614;-60
2021/04/19 09:51:39;;;;;;;7.18;4.63;;;;;;;11.33;57.60;99549.05;117222;1215;22832;-60
2021/04/19 09:54:11;;;;;;;5.45;4.78;;;;;;;11.37;57.81;99548.53;117225;1209;22857;-60
2021/04/19 09:56:44;;;;;;;11.30;5.05;;;;;;;11.40;57.79;99556.98;117195;1209;23982;-59
2021/04/19 09:59:19;;;;;;;7.87;5.77;;;;;;;11.38;57.53;99552.91;117238;1209;23529;-60
2021/04/19 10:01:53;;;;;;;9.90;5.20;;;;;;;11.33;58.04;99556.41;117210;1214;22800;-60
2021/04/19 10:04:21;;;;;;;8.78;4.63;;;;;;;11.28;58.06;99562.64;117254;1209;22955;-60
2021/04/19 10:06:53;;;;;;;6.10;4.20;;;;;;;11.31;57.03;99564.84;117195;1209;23903;-61
2021/04/19 10:09:27;;;;;;;6.58;4.68;;;;;;;11.28;56.62;99557.19;117227;1212;23007;-60
2021/04/19 10:11:58;;;;;;;7.03;4.37;;;;;;;11.26;56.55;99561.25;117216;1212;23455;-60
2021/04/19 10:14:27;;;;;;;7.93;4.50;;;;;;;11.24;56.14;99571.63;117230;1209;23024;-60
2021/04/19 10:16:54;;;;;;;6.80;4.58;;;;;;;11.24;56.87;99561.54;117199;1209;23005;-61
2021/04/19 10:19:29;;;;;;;8.68;4.75;;;;;;;11.23;56.91;99559.89;117249;1209;23789;-60
2021/04/19 10:22:05;;;;;;;6.33;4.70;;;;;;;11.23;56.63;99567.25;117217;1212;22856;-60
2021/04/19 10:24:37;;;;;;;6.05;4.13;;;;;;;11.21;56.46;99562.05;117301;1209;22805;-60
2021/04/19 10:27:05;;;;;;;5.05;3.70;;;;;;;11.23;56.28;99561.80;117196;1209;22809;-60
2021/04/19 10:29:33;;;;;;;4.60;3.80;;;;;;;11.25;55.89;99567.82;117189;1209;22850;-60
2021/04/19 10:32:01;;;;;;;4.53;4.10;;;;;;;11.26;55.61;99561.25;117209;1214;22889;-60
2021/04/19 10:34:30;;;;;;;7.23;3.80;;;;;;;11.27;56.46;99560.99;117238;1209;22828;-60
2021/04/19 10:37:04;;;;;;;6.18;4.30;;;;;;;11.31;56.54;99555.84;117223;1209;22896;-61
2021/04/19 10:39:33;;;;;;;5.53;4.30;;;;;;;11.37;56.51;99570.35;117213;1209;22886;-61
2021/04/19 10:42:04;;;;;;;8.55;3.95;;;;;;;11.40;56.28;99559.72;117219;1209;24201;-60
2021/04/19 10:44:43;;;;;;;4.38;3.98;;;;;;;11.43;55.52;99563.83;117225;1209;23977;-61
2021/04/19 10:47:12;;;;;;;5.65;3.45;;;;;;;11.43;54.94;99553.74;117191;1213;24140;-61
2021/04/19 10:49:40;;;;;;;4.35;3.78;;;;;;;11.46;54.03;99566.86;117248;1209;22846;-61
2021/04/19 10:52:08;;;;;;;7.28;4.48;;;;;;;11.48;53.73;99563.88;117213;1209;22858;-61
2021/04/19 10:54:37;;;;;;;5.93;3.80;;;;;;;11.46;54.36;99564.14;117241;1209;23043;-61
2021/04/19 10:57:06;;;;;;;4.87;3.83;;;;;;;11.47;54.03;99564.95;117225;1209;22867;-61
2021/04/19 10:59:33;;;;;;;3.55;3.10;;;;;;;11.48;54.05;99567.43;117261;1209;22915;-61
2021/04/19 11:02:02;;;;;;;4.40;3.23;;;;;;;11.50;54.01;99565.27;117190;1209;22938;-61
2021/04/19 11:04:30;;;;;;;3.60;2.53;;;;;;;11.54;53.39;99562.84;117228;1209;22858;-60
2021/04/19 11:07:37;;;;;;;3.83;3.28;;;;;;;11.56;53.17;99572.38;117191;1209;22987;-61
2021/04/19 11:10:30;;;;;;;8.93;5.50;;;;;;;11.56;52.88;99564.19;117256;1209;22923;-61
2021/04/19 11:13:01;;;;;;;8.08;5.53;;;;;;;11.58;53.21;99572.12;117221;1209;22855;-60
2021/04/19 11:15:32;;;;;;;5.23;3.58;;;;;;;11.59;52.69;99563.67;117216;1214;22841;-60
2021/04/19 11:18:14;;;;;;;3.78;3.05;;;;;;;11.58;52.77;99572.94;117220;1209;22871;-60
2021/04/19 11:20:42;;;;;;;4.27;3.50;;;;;;;11.56;52.84;99561.46;117210;1209;22891;-60
2021/04/19 11:23:28;;;;;;;3.88;3.25;;;;;;;11.57;52.75;99552.20;117174;1209;22852;-60
2021/04/19 11:26:01;;;;;;;5.10;3.60;;;;;;;11.58;52.46;99559.30;117241;1209;22931;-60
2021/04/19 11:28:34;;;;;;;4.80;3.25;;;;;;;11.57;52.26;99554.92;117198;1209;22924;-60
2021/04/19 11:31:16;;;;;;;6.33;3.40;;;;;;;11.59;52.83;99558.22;117245;1209;22911;-60
2021/04/19 11:33:44;;;;;;;4.53;3.80;;;;;;;11.62;52.53;99557.69;117188;1209;23098;-60
2021/04/19 11:36:40;;;;;;;3.70;3.30;;;;;;;11.62;51.97;99551.41;117224;1209;22923;-60
2021/04/19 11:39:23;;;;;;;6.95;3.15;;;;;;;11.60;52.28;99539.94;117170;1213;22866;-56
2021/04/19 11:41:51;;;;;;;3.98;3.53;;;;;;;11.62;52.70;99541.32;117255;1209;22848;-60
2021/04/19 11:44:19;;;;;;;6.25;4.00;;;;;;;11.66;52.55;99536.98;117216;1213;22836;-60
2021/04/19 11:46:48;;;;;;;7.87;3.77;;;;;;;11.69;52.76;99549.25;117259;1209;22926;-60